Quakertown, PA (18951)

11:12 PM EDT on October 20, 2014 (GMT -0400)
Milford Township | Change Station
CLOSE
Current Station
Personal Weather Station
Location: Quakertown, PA
Elevation: 544 ft
Nearby Weather Stations

Elev 544 ft 40.42 °N, 75.44 °W | Updated 10 minutes ago

Mostly Cloudy
Mostly Cloudy
53.4 °F
Feels Like 53.4 °F
N
4.0
Wind Variable Wind from SSE
Gusts 7.0 mph

Today
High -- | Low -- °F
--% Chance of Precip.
Yesterday
High -- | Low -- °F
Precip. -- in
7:17 AM 6:14 PM
Waning Crescent, 8% visible
Pressure 29.97 in
Visibility 10.0 miles
Clouds Mostly Cloudy 10000 ft
Dew Point 44 °F
Humidity 71%
Rainfall 0.00 in
Snow Depth Not available.
UV 0 out of 12
Pollen .70 out of 12
Air Quality Not available.
Flu Activity Sporadic
METAR KUKT 210255Z AUTO 00000KT 10SM BKN100 12/06 A2997 RMK AO1

More Conditions Fewer Conditions

Pressure 29.97 in
Visibility 10.0 miles
Clouds Mostly Cloudy 10000 ft
Dew Point 44 °F
Humidity 71%
Rainfall 0.00 in
Snow Depth Not available.
UV 0 out of 12
Pollen .70 out of 12
Air Quality Not available.
Flu Activity Sporadic
METAR KUKT 210255Z AUTO 00000KT 10SM BKN100 12/06 A2997 RMK AO1

More Conditions Fewer Conditions

Nowcast | as of 11:10 PM EDT on October 20, 2014

A band of light showers at 1108 PM extends from northern Maryland through the Lancaster-reading area of southeast Pennsylvania then up into the northeast tip of Pennsylvania. This band of light showers is drifting east while the cells move northeast within the band. Light showers should develop by midnight from the Allentown Pennsylvania area into northwest New Jersey.

×

10-Day Weather Forecast

Almanac

Astronomy

Oct. 20, 2014 Rise Set
Actual Time 7:17 AM EDT 6:14 PM EDT
Civil Twilight 6:50 AM EDT 6:41 PM EDT
Nautical Twilight 6:18 AM EDT 7:13 PM EDT
Astronomical Twilight 5:46 AM EDT 7:44 PM EDT
Moon 4:03 AM EDT (10/20) 4:36 PM EDT (10/20)
Length of Visible Light 11h 51m
Length of Day
10h 56m
Tomorrow will be 2m 31s shorter.
Waning Crescent, 8% of the Moon is Illuminated
Today
Waning Crescent
Oct 23
New
Oct 30
First Quarter
Nov 6
Full
Nov 14
Last Quarter

Today's Extremes

State Highs State Lows

Community

WunderPhotos

Upload Photos

1,763,589 photos uploaded!

Nearby

Snow Depth

Station Depth Elevation
No new snow has been reported.

Earthquake Activity

City Distance Mag. Time & Date
No recent earthquake activity has been reported nearby.
Minimum magnitude displayed is 2.5.

Coastal Water Temperatures

Place Temperature
No Stations Reporting

Nearby Weather Stations